sensor_id;sensor_type;location;lat;lon;timestamp;pressure;altitude;pressure_sealevel;temperature;humidity
40992;BME280;29633;49.168;9.848;2023-03-15T00:02:02;96338.16;;;7.99;63.91
40992;BME280;29633;49.168;9.848;2023-03-15T00:04:27;96342.72;;;7.95;63.98
40992;BME280;29633;49.168;9.848;2023-03-15T00:06:53;96353.41;;;7.90;64.15
40992;BME280;29633;49.168;9.848;2023-03-15T00:09:19;96364.06;;;7.86;64.11
40992;BME280;29633;49.168;9.848;2023-03-15T00:11:49;96359.03;;;7.84;63.98
40992;BME280;29633;49.168;9.848;2023-03-15T00:14:15;96364.31;;;7.83;63.81
40992;BME280;29633;49.168;9.848;2023-03-15T00:16:41;96370.97;;;7.85;64.02
40992;BME280;29633;49.168;9.848;2023-03-15T00:19:08;96375.44;;;7.83;63.69
40992;BME280;29633;49.168;9.848;2023-03-15T00:21:34;96377.19;;;7.83;63.66
40992;BME280;29633;49.168;9.848;2023-03-15T00:24:00;96383.44;;;7.80;63.80
40992;BME280;29633;49.168;9.848;2023-03-15T00:26:26;96389.41;;;7.81;63.71
40992;BME280;29633;49.168;9.848;2023-03-15T00:28:51;96384.44;;;7.78;63.80
40992;BME280;29633;49.168;9.848;2023-03-15T00:31:19;96384.34;;;7.79;63.82
40992;BME280;29633;49.168;9.848;2023-03-15T00:33:46;96382.69;;;7.78;63.69
40992;BME280;29633;49.168;9.848;2023-03-15T00:36:12;96393.03;;;7.78;63.72
40992;BME280;29633;49.168;9.848;2023-03-15T00:38:39;96399.47;;;7.73;63.69
40992;BME280;29633;49.168;9.848;2023-03-15T00:41:07;96411.66;;;7.71;63.93
40992;BME280;29633;49.168;9.848;2023-03-15T00:43:33;96416.22;;;7.67;63.81
40992;BME280;29633;49.168;9.848;2023-03-15T00:45:59;96421.59;;;7.64;63.82
40992;BME280;29633;49.168;9.848;2023-03-15T00:48:25;96419.25;;;7.61;63.95
40992;BME280;29633;49.168;9.848;2023-03-15T00:50:51;96419.38;;;7.60;63.94
40992;BME280;29633;49.168;9.848;2023-03-15T00:53:16;96423.50;;;7.62;63.96
40992;BME280;29633;49.168;9.848;2023-03-15T00:55:42;96416.78;;;7.60;63.88
40992;BME280;29633;49.168;9.848;2023-03-15T00:58:07;96432.06;;;7.63;64.04
40992;BME280;29633;49.168;9.848;2023-03-15T01:00:33;96431.34;;;7.61;63.96
40992;BME280;29633;49.168;9.848;2023-03-15T01:02:59;96443.53;;;7.59;63.97
40992;BME280;29633;49.168;9.848;2023-03-15T01:05:25;96453.25;;;7.55;64.00
40992;BME280;29633;49.168;9.848;2023-03-15T01:07:51;96450.09;;;7.52;64.21
40992;BME280;29633;49.168;9.848;2023-03-15T01:10:17;96447.72;;;7.49;64.14
40992;BME280;29633;49.168;9.848;2023-03-15T01:12:43;96451.34;;;7.46;64.18
40992;BME280;29633;49.168;9.848;2023-03-15T01:15:13;96459.91;;;7.47;64.17
40992;BME280;29633;49.168;9.848;2023-03-15T01:17:39;96465.19;;;7.45;64.09
40992;BME280;29633;49.168;9.848;2023-03-15T01:20:05;96460.97;;;7.44;64.17
40992;BME280;29633;49.168;9.848;2023-03-15T01:22:31;96466.94;;;7.45;64.15
40992;BME280;29633;49.168;9.848;2023-03-15T01:24:57;96464.56;;;7.41;64.13
40992;BME280;29633;49.168;9.848;2023-03-15T01:27:22;96462.81;;;7.42;64.14
40992;BME280;29633;49.168;9.848;2023-03-15T01:29:48;96458.59;;;7.41;64.23
40992;BME280;29633;49.168;9.848;2023-03-15T01:32:13;96464.09;;;7.36;64.31
40992;BME280;29633;49.168;9.848;2023-03-15T01:34:39;96460.59;;;7.37;64.24
40992;BME280;29633;49.168;9.848;2023-03-15T01:37:05;96466.53;;;7.38;64.38
40992;BME280;29633;49.168;9.848;2023-03-15T01:39:31;96467.81;;;7.32;64.16
40992;BME280;29633;49.168;9.848;2023-03-15T01:41:56;96470.72;;;7.28;64.17
40992;BME280;29633;49.168;9.848;2023-03-15T01:44:22;96476.31;;;7.22;64.39
40992;BME280;29633;49.168;9.848;2023-03-15T01:46:48;96473.16;;;7.18;64.39
40992;BME280;29633;49.168;9.848;2023-03-15T01:49:27;96481.19;;;7.14;64.41
40992;BME280;29633;49.168;9.848;2023-03-15T01:52:07;96486.66;;;7.09;64.39
40992;BME280;29633;49.168;9.848;2023-03-15T01:57:10;96491.63;;;7.12;64.29
40992;BME280;29633;49.168;9.848;2023-03-15T01:59:43;96499.56;;;7.09;64.45
40992;BME280;29633;49.168;9.848;2023-03-15T02:02:09;96497.19;;;7.06;64.36
40992;BME280;29633;49.168;9.848;2023-03-15T02:04:55;96507.72;;;7.03;64.43
40992;BME280;29633;49.168;9.848;2023-03-15T02:07:22;96509.47;;;7.03;64.48
40992;BME280;29633;49.168;9.848;2023-03-15T02:10:10;96514.63;;;7.03;64.36
40992;BME280;29633;49.168;9.848;2023-03-15T02:12:39;96516.91;;;7.07;64.41
40992;BME280;29633;49.168;9.848;2023-03-15T02:15:07;96513.63;;;7.05;64.48
40992;BME280;29633;49.168;9.848;2023-03-15T02:17:43;96516.50;;;7.01;64.38
40992;BME280;29633;49.168;9.848;2023-03-15T02:22:46;96530.97;;;6.90;64.46
40992;BME280;29633;49.168;9.848;2023-03-15T02:27:49;96539.94;;;6.85;64.70
40992;BME280;29633;49.168;9.848;2023-03-15T02:30:16;96541.59;;;6.86;64.49
40992;BME280;29633;49.168;9.848;2023-03-15T02:32:44;96535.91;;;6.81;64.55
40992;BME280;29633;49.168;9.848;2023-03-15T02:35:10;96550.88;;;6.76;64.61
40992;BME280;29633;49.168;9.848;2023-03-15T02:37:36;96555.09;;;6.77;64.64
40992;BME280;29633;49.168;9.848;2023-03-15T02:40:02;96555.09;;;6.77;64.56
40992;BME280;29633;49.168;9.848;2023-03-15T02:42:30;96556.75;;;6.78;64.72
40992;BME280;29633;49.168;9.848;2023-03-15T02:44:55;96553.88;;;6.70;64.67
40992;BME280;29633;49.168;9.848;2023-03-15T02:47:26;96550.66;;;6.66;64.68
40992;BME280;29633;49.168;9.848;2023-03-15T02:49:52;96561.41;;;6.60;64.85
40992;BME280;29633;49.168;9.848;2023-03-15T02:52:19;96559.75;;;6.59;64.80
40992;BME280;29633;49.168;9.848;2023-03-15T02:54:47;96567.59;;;6.58;64.84
40992;BME280;29633;49.168;9.848;2023-03-15T02:57:13;96571.00;;;6.58;64.79
40992;BME280;29633;49.168;9.848;2023-03-15T02:59:39;96569.44;;;6.56;64.92
40992;BME280;29633;49.168;9.848;2023-03-15T03:02:07;96572.22;;;6.53;64.84
40992;BME280;29633;49.168;9.848;2023-03-15T03:04:33;96568.19;;;6.49;64.75
40992;BME280;29633;49.168;9.848;2023-03-15T03:06:59;96577.88;;;6.45;64.91
40992;BME280;29633;49.168;9.848;2023-03-15T03:09:25;96577.06;;;6.44;65.01
40992;BME280;29633;49.168;9.848;2023-03-15T03:11:50;96585.72;;;6.43;64.87
40992;BME280;29633;49.168;9.848;2023-03-15T03:14:16;96600.56;;;6.40;64.91
40992;BME280;29633;49.168;9.848;2023-03-15T03:16:41;96600.34;;;6.43;64.96
40992;BME280;29633;49.168;9.848;2023-03-15T03:19:09;96602.91;;;6.43;64.89
40992;BME280;29633;49.168;9.848;2023-03-15T03:21:37;96608.91;;;6.43;64.98
40992;BME280;29633;49.168;9.848;2023-03-15T03:24:02;96608.06;;;6.43;64.81
40992;BME280;29633;49.168;9.848;2023-03-15T03:26:28;96620.94;;;6.43;64.84
40992;BME280;29633;49.168;9.848;2023-03-15T03:28:57;96626.09;;;6.43;64.88
40992;BME280;29633;49.168;9.848;2023-03-15T03:31:24;96631.88;;;6.47;64.84
40992;BME280;29633;49.168;9.848;2023-03-15T03:33:50;96644.81;;;6.45;64.92
40992;BME280;29633;49.168;9.848;2023-03-15T03:36:16;96654.50;;;6.41;64.96
40992;BME280;29633;49.168;9.848;2023-03-15T03:38:43;96652.84;;;6.40;64.95
40992;BME280;29633;49.168;9.848;2023-03-15T03:41:09;96663.56;;;6.34;65.12
40992;BME280;29633;49.168;9.848;2023-03-15T03:43:35;96662.09;;;6.30;65.19
40992;BME280;29633;49.168;9.848;2023-03-15T03:46:01;96660.44;;;6.29;65.18
40992;BME280;29633;49.168;9.848;2023-03-15T03:48:27;96665.91;;;6.25;65.04
40992;BME280;29633;49.168;9.848;2023-03-15T03:50:53;96660.13;;;6.21;65.12
40992;BME280;29633;49.168;9.848;2023-03-15T03:53:19;96663.09;;;6.15;65.35
40992;BME280;29633;49.168;9.848;2023-03-15T03:55:44;96668.06;;;6.18;65.18
40992;BME280;29633;49.168;9.848;2023-03-15T03:58:13;96674.00;;;6.19;64.92
40992;BME280;29633;49.168;9.848;2023-03-15T04:00:39;96676.91;;;6.14;65.30
40992;BME280;29633;49.168;9.848;2023-03-15T04:03:06;96678.72;;;6.12;65.30
40992;BME280;29633;49.168;9.848;2023-03-15T04:05:32;96690.88;;;6.10;65.39
40992;BME280;29633;49.168;9.848;2023-03-15T04:07:58;96688.19;;;6.12;65.12
40992;BME280;29633;49.168;9.848;2023-03-15T04:10:24;96697.56;;;6.13;65.22
40992;BME280;29633;49.168;9.848;2023-03-15T04:12:55;96707.97;;;6.11;65.10
40992;BME280;29633;49.168;9.848;2023-03-15T04:15:22;96715.78;;;6.10;65.21
40992;BME280;29633;49.168;9.848;2023-03-15T04:17:51;96714.53;;;6.03;65.28
40992;BME280;29633;49.168;9.848;2023-03-15T04:20:21;96725.00;;;6.00;65.31
40992;BME280;29633;49.168;9.848;2023-03-15T04:22:47;96726.00;;;5.97;65.34
40992;BME280;29633;49.168;9.848;2023-03-15T04:25:17;96727.78;;;5.97;65.38
40992;BME280;29633;49.168;9.848;2023-03-15T04:27:44;96728.06;;;5.92;65.41
40992;BME280;29633;49.168;9.848;2023-03-15T04:30:10;96730.72;;;5.90;65.54
40992;BME280;29633;49.168;9.848;2023-03-15T04:32:36;96728.25;;;5.89;65.37
40992;BME280;29633;49.168;9.848;2023-03-15T04:35:02;96737.88;;;5.85;65.53
40992;BME280;29633;49.168;9.848;2023-03-15T04:37:29;96745.53;;;5.87;65.61
40992;BME280;29633;49.168;9.848;2023-03-15T04:39:56;96741.19;;;5.87;65.36
40992;BME280;29633;49.168;9.848;2023-03-15T04:42:22;96747.81;;;5.91;65.55
40992;BME280;29633;49.168;9.848;2023-03-15T04:44:50;96742.66;;;5.91;65.39
40992;BME280;29633;49.168;9.848;2023-03-15T04:47:16;96743.94;;;5.99;65.45
40992;BME280;29633;49.168;9.848;2023-03-15T04:49:42;96754.66;;;6.05;65.22
40992;BME280;29633;49.168;9.848;2023-03-15T04:52:07;96751.47;;;6.02;65.29
40992;BME280;29633;49.168;9.848;2023-03-15T04:54:33;96760.09;;;6.01;65.28
40992;BME280;29633;49.168;9.848;2023-03-15T04:56:59;96767.00;;;6.00;65.25
40992;BME280;29633;49.168;9.848;2023-03-15T04:59:24;96770.38;;;6.01;65.37
40992;BME280;29633;49.168;9.848;2023-03-15T05:01:50;96772.94;;;6.01;65.24
40992;BME280;29633;49.168;9.848;2023-03-15T05:04:15;96773.47;;;5.93;65.31
40992;BME280;29633;49.168;9.848;2023-03-15T05:06:41;96778.78;;;5.90;65.33
40992;BME280;29633;49.168;9.848;2023-03-15T05:09:07;96779.78;;;5.87;65.43
40992;BME280;29633;49.168;9.848;2023-03-15T05:11:32;96783.19;;;5.88;65.36
40992;BME280;29633;49.168;9.848;2023-03-15T05:13:58;96779.91;;;5.86;65.28
40992;BME280;29633;49.168;9.848;2023-03-15T05:16:24;96776.47;;;5.85;65.31
40992;BME280;29633;49.168;9.848;2023-03-15T05:18:50;96780.16;;;5.81;65.35
40992;BME280;29633;49.168;9.848;2023-03-15T05:21:15;96776.63;;;5.82;65.57
40992;BME280;29633;49.168;9.848;2023-03-15T05:23:41;96781.53;;;5.87;65.29
40992;BME280;29633;49.168;9.848;2023-03-15T05:26:09;96778.59;;;5.93;65.37
40992;BME280;29633;49.168;9.848;2023-03-15T05:28:34;96780.69;;;6.01;65.19
40992;BME280;29633;49.168;9.848;2023-03-15T05:31:00;96783.44;;;5.98;65.13
40992;BME280;29633;49.168;9.848;2023-03-15T05:33:26;96785.31;;;5.96;65.08
40992;BME280;29633;49.168;9.848;2023-03-15T05:35:52;96790.72;;;5.91;65.28
40992;BME280;29633;49.168;9.848;2023-03-15T05:38:20;96791.00;;;5.86;65.16
40992;BME280;29633;49.168;9.848;2023-03-15T05:40:50;96789.16;;;5.88;65.13
40992;BME280;29633;49.168;9.848;2023-03-15T05:43:16;96788.97;;;5.91;65.11
40992;BME280;29633;49.168;9.848;2023-03-15T05:45:42;96792.25;;;5.93;64.94
40992;BME280;29633;49.168;9.848;2023-03-15T05:48:09;96798.88;;;5.98;65.06
40992;BME280;29633;49.168;9.848;2023-03-15T05:50:34;96792.34;;;6.06;65.08
40992;BME280;29633;49.168;9.848;2023-03-15T05:53:00;96791.97;;;6.12;64.96
40992;BME280;29633;49.168;9.848;2023-03-15T05:55:25;96792.59;;;6.16;64.86
40992;BME280;29633;49.168;9.848;2023-03-15T05:57:51;96793.41;;;6.16;64.88
40992;BME280;29633;49.168;9.848;2023-03-15T06:00:17;96786.63;;;6.15;65.09
40992;BME280;29633;49.168;9.848;2023-03-15T06:02:44;96785.50;;;6.19;65.12
40992;BME280;29633;49.168;9.848;2023-03-15T06:05:10;96789.47;;;6.25;64.79
40992;BME280;29633;49.168;9.848;2023-03-15T06:07:36;96790.91;;;6.29;64.99
40992;BME280;29633;49.168;9.848;2023-03-15T06:10:02;96794.13;;;6.32;64.84
40992;BME280;29633;49.168;9.848;2023-03-15T06:12:28;96785.38;;;6.35;64.87
40992;BME280;29633;49.168;9.848;2023-03-15T06:14:53;96788.59;;;6.38;64.94
40992;BME280;29633;49.168;9.848;2023-03-15T06:17:19;96798.47;;;6.44;64.87
40992;BME280;29633;49.168;9.848;2023-03-15T06:19:47;96792.50;;;6.44;64.92
40992;BME280;29633;49.168;9.848;2023-03-15T06:22:12;96803.56;;;6.46;64.94
40992;BME280;29633;49.168;9.848;2023-03-15T06:24:38;96809.63;;;6.45;64.98
40992;BME280;29633;49.168;9.848;2023-03-15T06:27:04;96818.25;;;6.44;65.13
40992;BME280;29633;49.168;9.848;2023-03-15T06:29:29;96820.53;;;6.49;65.02
40992;BME280;29633;49.168;9.848;2023-03-15T06:31:55;96828.28;;;6.49;64.92
40992;BME280;29633;49.168;9.848;2023-03-15T06:34:21;96828.38;;;6.47;65.11
40992;BME280;29633;49.168;9.848;2023-03-15T06:36:49;96828.91;;;6.52;65.12
40992;BME280;29633;49.168;9.848;2023-03-15T06:39:17;96821.91;;;6.54;65.01
40992;BME280;29633;49.168;9.848;2023-03-15T06:41:42;96824.09;;;6.60;65.09
40992;BME280;29633;49.168;9.848;2023-03-15T06:44:09;96833.75;;;6.57;65.00
40992;BME280;29633;49.168;9.848;2023-03-15T06:46:35;96825.22;;;6.56;65.07
40992;BME280;29633;49.168;9.848;2023-03-15T06:49:01;96822.25;;;6.62;64.92
40992;BME280;29633;49.168;9.848;2023-03-15T06:51:26;96819.16;;;6.70;64.81
40992;BME280;29633;49.168;9.848;2023-03-15T06:53:52;96826.28;;;6.66;64.97
40992;BME280;29633;49.168;9.848;2023-03-15T06:56:17;96828.84;;;6.66;64.95
40992;BME280;29633;49.168;9.848;2023-03-15T06:58:43;96824.66;;;6.65;65.06
40992;BME280;29633;49.168;9.848;2023-03-15T07:01:13;96818.53;;;6.66;64.97
40992;BME280;29633;49.168;9.848;2023-03-15T07:03:39;96824.31;;;6.70;64.89
40992;BME280;29633;49.168;9.848;2023-03-15T07:06:05;96821.66;;;6.71;64.72
40992;BME280;29633;49.168;9.848;2023-03-15T07:08:30;96827.03;;;6.68;64.83
40992;BME280;29633;49.168;9.848;2023-03-15T07:10:56;96831.97;;;6.71;64.69
40992;BME280;29633;49.168;9.848;2023-03-15T07:13:22;96838.78;;;6.72;64.91
40992;BME280;29633;49.168;9.848;2023-03-15T07:15:54;96840.31;;;6.75;64.70
40992;BME280;29633;49.168;9.848;2023-03-15T07:18:21;96848.47;;;6.81;64.67
40992;BME280;29633;49.168;9.848;2023-03-15T07:20:54;96842.22;;;6.85;64.83
40992;BME280;29633;49.168;9.848;2023-03-15T07:23:20;96850.28;;;6.93;64.70
40992;BME280;29633;49.168;9.848;2023-03-15T07:25:46;96838.09;;;6.96;64.65
40992;BME280;29633;49.168;9.848;2023-03-15T07:28:12;96845.34;;;7.03;64.66
40992;BME280;29633;49.168;9.848;2023-03-15T07:30:38;96844.94;;;7.09;64.80
40992;BME280;29633;49.168;9.848;2023-03-15T07:33:03;96847.97;;;7.16;64.88
40992;BME280;29633;49.168;9.848;2023-03-15T07:35:29;96838.16;;;7.21;64.56
40992;BME280;29633;49.168;9.848;2023-03-15T07:37:55;96838.47;;;7.29;64.69
40992;BME280;29633;49.168;9.848;2023-03-15T07:40:20;96845.09;;;7.33;64.57
40992;BME280;29633;49.168;9.848;2023-03-15T07:42:46;96849.84;;;7.39;64.56
40992;BME280;29633;49.168;9.848;2023-03-15T07:45:12;96847.03;;;7.42;64.40
40992;BME280;29633;49.168;9.848;2023-03-15T07:47:37;96846.66;;;7.48;64.43
40992;BME280;29633;49.168;9.848;2023-03-15T07:50:06;96849.53;;;7.56;64.46
40992;BME280;29633;49.168;9.848;2023-03-15T07:52:32;96848.19;;;7.63;64.44
40992;BME280;29633;49.168;9.848;2023-03-15T07:54:57;96851.91;;;7.72;64.21
40992;BME280;29633;49.168;9.848;2023-03-15T07:57:23;96850.56;;;7.79;64.15
40992;BME280;29633;49.168;9.848;2023-03-15T07:59:49;96856.03;;;7.87;64.05
40992;BME280;29633;49.168;9.848;2023-03-15T08:02:16;96858.41;;;7.90;64.15
40992;BME280;29633;49.168;9.848;2023-03-15T08:04:42;96867.59;;;7.94;64.14
40992;BME280;29633;49.168;9.848;2023-03-15T08:07:09;96860.78;;;7.93;64.09
40992;BME280;29633;49.168;9.848;2023-03-15T08:09:35;96866.34;;;8.00;64.35
40992;BME280;29633;49.168;9.848;2023-03-15T08:12:01;96861.28;;;7.98;64.23
40992;BME280;29633;49.168;9.848;2023-03-15T08:14:26;96859.22;;;7.90;64.24
40992;BME280;29633;49.168;9.848;2023-03-15T08:16:52;96874.19;;;7.85;64.54
40992;BME280;29633;49.168;9.848;2023-03-15T08:19:18;96872.56;;;7.84;64.46
40992;BME280;29633;49.168;9.848;2023-03-15T08:21:43;96870.69;;;7.86;64.60
40992;BME280;29633;49.168;9.848;2023-03-15T08:24:13;96879.34;;;7.85;64.56
40992;BME280;29633;49.168;9.848;2023-03-15T08:26:39;96873.38;;;7.72;64.81
40992;BME280;29633;49.168;9.848;2023-03-15T08:29:07;96882.25;;;7.68;64.98
40992;BME280;29633;49.168;9.848;2023-03-15T08:31:33;96877.22;;;7.67;64.90
40992;BME280;29633;49.168;9.848;2023-03-15T08:33:58;96873.59;;;7.69;64.83
40992;BME280;29633;49.168;9.848;2023-03-15T08:36:24;96875.44;;;7.80;64.84
40992;BME280;29633;49.168;9.848;2023-03-15T08:38:50;96882.69;;;7.87;64.84
40992;BME280;29633;49.168;9.848;2023-03-15T08:41:15;96895.16;;;7.93;64.70
40992;BME280;29633;49.168;9.848;2023-03-15T08:43:41;96893.19;;;7.97;64.81
40992;BME280;29633;49.168;9.848;2023-03-15T08:46:07;96897.63;;;8.08;64.74
40992;BME280;29633;49.168;9.848;2023-03-15T08:48:32;96902.38;;;8.14;64.75
40992;BME280;29633;49.168;9.848;2023-03-15T08:51:05;96902.78;;;8.20;64.68
40992;BME280;29633;49.168;9.848;2023-03-15T08:53:31;96903.81;;;8.30;64.52
40992;BME280;29633;49.168;9.848;2023-03-15T08:55:57;96905.56;;;8.43;64.51
40992;BME280;29633;49.168;9.848;2023-03-15T08:58:23;96907.88;;;8.58;64.22
40992;BME280;29633;49.168;9.848;2023-03-15T09:00:49;96908.78;;;8.70;64.10
40992;BME280;29633;49.168;9.848;2023-03-15T09:03:16;96907.59;;;8.86;64.04
40992;BME280;29633;49.168;9.848;2023-03-15T09:05:42;96909.69;;;9.05;63.87
40992;BME280;29633;49.168;9.848;2023-03-15T09:08:07;96910.34;;;9.20;63.73
40992;BME280;29633;49.168;9.848;2023-03-15T09:10:33;96910.38;;;9.31;63.81
40992;BME280;29633;49.168;9.848;2023-03-15T09:12:59;96923.81;;;9.36;63.74
40992;BME280;29633;49.168;9.848;2023-03-15T09:15:25;96916.53;;;9.41;63.68
40992;BME280;29633;49.168;9.848;2023-03-15T09:17:51;96924.06;;;9.44;63.94
40992;BME280;29633;49.168;9.848;2023-03-15T09:20:16;96916.09;;;9.47;64.10
40992;BME280;29633;49.168;9.848;2023-03-15T09:22:48;96920.22;;;9.50;64.09
40992;BME280;29633;49.168;9.848;2023-03-15T09:25:15;96917.53;;;9.51;64.15
40992;BME280;29633;49.168;9.848;2023-03-15T09:27:40;96925.75;;;9.56;64.12
40992;BME280;29633;49.168;9.848;2023-03-15T09:30:10;96925.75;;;9.56;64.03
40992;BME280;29633;49.168;9.848;2023-03-15T09:32:36;96919.66;;;9.57;64.25
40992;BME280;29633;49.168;9.848;2023-03-15T09:35:06;96922.09;;;9.48;64.19
40992;BME280;29633;49.168;9.848;2023-03-15T09:37:33;96922.31;;;9.45;64.25
40992;BME280;29633;49.168;9.848;2023-03-15T09:39:59;96936.19;;;9.44;64.50
40992;BME280;29633;49.168;9.848;2023-03-15T09:45:15;96935.31;;;9.32;64.55
40992;BME280;29633;49.168;9.848;2023-03-15T09:48:03;96924.47;;;9.27;64.62
40992;BME280;29633;49.168;9.848;2023-03-15T09:50:45;96939.28;;;9.25;64.74
40992;BME280;29633;49.168;9.848;2023-03-15T09:53:36;96946.22;;;9.24;64.60
40992;BME280;29633;49.168;9.848;2023-03-15T09:56:24;96940.34;;;9.22;64.54
40992;BME280;29633;49.168;9.848;2023-03-15T09:58:53;96943.34;;;9.16;64.64
40992;BME280;29633;49.168;9.848;2023-03-15T10:01:22;96942.06;;;9.11;64.61
40992;BME280;29633;49.168;9.848;2023-03-15T10:03:51;96947.09;;;9.12;64.44
40992;BME280;29633;49.168;9.848;2023-03-15T10:06:30;96942.06;;;9.11;64.66
40992;BME280;29633;49.168;9.848;2023-03-15T10:09:01;96934.53;;;9.08;64.58
40992;BME280;29633;49.168;9.848;2023-03-15T10:11:41;96941.31;;;9.09;64.51
40992;BME280;29633;49.168;9.848;2023-03-15T10:17:13;96934.53;;;9.08;64.61
40992;BME280;29633;49.168;9.848;2023-03-15T10:23:19;96942.22;;;8.97;64.52
40992;BME280;29633;49.168;9.848;2023-03-15T10:25:27;96938.44;;;8.77;64.73
40992;BME280;29633;49.168;9.848;2023-03-15T10:28:09;96962.53;;;8.65;64.87
40992;BME280;29633;49.168;9.848;2023-03-15T10:30:39;96953.09;;;8.53;64.81
40992;BME280;29633;49.168;9.848;2023-03-15T10:35:42;96955.88;;;8.37;64.98
40992;BME280;29633;49.168;9.848;2023-03-15T10:38:13;96953.28;;;8.24;64.96
40992;BME280;29633;49.168;9.848;2023-03-15T10:40:45;96956.50;;;8.15;64.92
40992;BME280;29633;49.168;9.848;2023-03-15T10:43:25;96956.28;;;8.06;65.08
40992;BME280;29633;49.168;9.848;2023-03-15T10:46:07;96948.84;;;8.01;65.02
40992;BME280;29633;49.168;9.848;2023-03-15T10:48:51;96960.44;;;7.96;64.90
40992;BME280;29633;49.168;9.848;2023-03-15T10:51:33;96961.56;;;7.91;64.90
40992;BME280;29633;49.168;9.848;2023-03-15T10:56:49;96964.94;;;7.79;64.91
40992;BME280;29633;49.168;9.848;2023-03-15T10:59:24;96969.56;;;7.74;64.96
40992;BME280;29633;49.168;9.848;2023-03-15T11:02:06;96967.09;;;7.73;64.84
40992;BME280;29633;49.168;9.848;2023-03-15T11:04:32;96966.84;;;7.63;64.94
40992;BME280;29633;49.168;9.848;2023-03-15T11:07:02;96971.09;;;7.52;65.04
40992;BME280;29633;49.168;9.848;2023-03-15T11:09:39;96974.66;;;7.49;65.14
40992;BME280;29633;49.168;9.848;2023-03-15T11:12:07;96981.69;;;7.47;64.94
40992;BME280;29633;49.168;9.848;2023-03-15T11:14:42;96973.41;;;7.42;65.01
40992;BME280;29633;49.168;9.848;2023-03-15T11:17:18;96976.00;;;7.42;65.17
40992;BME280;29633;49.168;9.848;2023-03-15T11:19:52;96969.84;;;7.45;64.94
40992;BME280;29633;49.168;9.848;2023-03-15T11:22:19;96968.72;;;7.49;65.02
40992;BME280;29633;49.168;9.848;2023-03-15T11:24:45;96960.84;;;7.50;65.11
40992;BME280;29633;49.168;9.848;2023-03-15T11:27:13;96955.13;;;7.59;64.93
40992;BME280;29633;49.168;9.848;2023-03-15T11:29:42;96963.56;;;7.61;64.91
40992;BME280;29633;49.168;9.848;2023-03-15T11:32:17;96963.47;;;7.63;65.03
40992;BME280;29633;49.168;9.848;2023-03-15T11:35:05;96964.59;;;7.71;64.92
40992;BME280;29633;49.168;9.848;2023-03-15T11:42:47;96958.66;;;7.83;64.78
40992;BME280;29633;49.168;9.848;2023-03-15T11:45:22;96965.34;;;7.86;64.80
40992;BME280;29633;49.168;9.848;2023-03-15T11:47:54;96965.25;;;7.87;64.71
40992;BME280;29633;49.168;9.848;2023-03-15T11:50:21;96964.22;;;7.90;64.81
40992;BME280;29633;49.168;9.848;2023-03-15T11:52:48;96960.31;;;7.97;64.80
40992;BME280;29633;49.168;9.848;2023-03-15T11:55:25;96965.78;;;7.92;64.86
40992;BME280;29633;49.168;9.848;2023-03-15T11:57:52;96963.50;;;7.88;65.02
40992;BME280;29633;49.168;9.848;2023-03-15T12:03:22;96962.66;;;7.75;65.19
40992;BME280;29633;49.168;9.848;2023-03-15T12:05:49;96975.25;;;7.67;65.28
40992;BME280;29633;49.168;9.848;2023-03-15T12:08:21;96970.38;;;7.62;65.21
40992;BME280;29633;49.168;9.848;2023-03-15T12:10:50;96979.03;;;7.61;65.38
40992;BME280;29633;49.168;9.848;2023-03-15T12:13:25;96975.63;;;7.61;65.60
40992;BME280;29633;49.168;9.848;2023-03-15T12:15:51;96972.03;;;7.63;65.12
40992;BME280;29633;49.168;9.848;2023-03-15T12:18:20;96979.59;;;7.66;65.10
40992;BME280;29633;49.168;9.848;2023-03-15T12:21:03;96978.22;;;7.61;65.29
40992;BME280;29633;49.168;9.848;2023-03-15T12:23:36;96979.47;;;7.55;65.23
40992;BME280;29633;49.168;9.848;2023-03-15T12:28:35;96972.22;;;7.48;65.38
40992;BME280;29633;49.168;9.848;2023-03-15T12:31:05;96968.09;;;7.45;65.35
40992;BME280;29633;49.168;9.848;2023-03-15T12:33:42;96973.41;;;7.42;65.44
40992;BME280;29633;49.168;9.848;2023-03-15T12:36:36;96981.16;;;7.42;65.42
40992;BME280;29633;49.168;9.848;2023-03-15T12:41:42;96981.91;;;7.44;65.49
40992;BME280;29633;49.168;9.848;2023-03-15T12:44:26;96976.94;;;7.41;65.47
40992;BME280;29633;49.168;9.848;2023-03-15T12:47:05;96979.31;;;7.44;65.51
40992;BME280;29633;49.168;9.848;2023-03-15T12:49:41;96981.50;;;7.50;65.50
40992;BME280;29633;49.168;9.848;2023-03-15T12:55:14;96981.09;;;7.56;65.44
40992;BME280;29633;49.168;9.848;2023-03-15T12:57:49;96985.25;;;7.59;65.34
40992;BME280;29633;49.168;9.848;2023-03-15T13:00:20;96985.13;;;7.60;65.62
40992;BME280;29633;49.168;9.848;2023-03-15T13:03:04;96982.25;;;7.65;65.27
40992;BME280;29633;49.168;9.848;2023-03-15T13:08:08;96980.22;;;7.70;65.36
40992;BME280;29633;49.168;9.848;2023-03-15T13:14:13;96988.38;;;7.76;65.23
40992;BME280;29633;49.168;9.848;2023-03-15T13:16:50;96985.03;;;7.74;65.22
40992;BME280;29633;49.168;9.848;2023-03-15T13:19:27;96988.47;;;7.75;65.39
40992;BME280;29633;49.168;9.848;2023-03-15T13:24:50;96981.75;;;7.72;65.56
40992;BME280;29633;49.168;9.848;2023-03-15T13:27:49;96988.97;;;7.67;65.53
40992;BME280;29633;49.168;9.848;2023-03-15T13:33:05;96983.28;;;7.62;65.66
40992;BME280;29633;49.168;9.848;2023-03-15T13:35:43;96984.00;;;7.64;65.66
40992;BME280;29633;49.168;9.848;2023-03-15T13:41:26;96984.34;;;7.72;65.54
40992;BME280;29633;49.168;9.848;2023-03-15T13:43:54;96989.78;;;7.68;65.67
40992;BME280;29633;49.168;9.848;2023-03-15T13:46:22;96982.34;;;7.63;65.68
40992;BME280;29633;49.168;9.848;2023-03-15T13:48:49;96975.75;;;7.59;65.82
40992;BME280;29633;49.168;9.848;2023-03-15T13:51:35;96979.53;;;7.54;65.99
40992;BME280;29633;49.168;9.848;2023-03-15T13:56:35;96980.56;;;7.51;65.97
40992;BME280;29633;49.168;9.848;2023-03-15T13:59:02;96980.38;;;7.54;65.98
40992;BME280;29633;49.168;9.848;2023-03-15T14:01:29;96981.84;;;7.58;65.83
40992;BME280;29633;49.168;9.848;2023-03-15T14:04:08;96982.25;;;7.52;66.03
40992;BME280;29633;49.168;9.848;2023-03-15T14:06:36;96978.91;;;7.50;65.98
40992;BME280;29633;49.168;9.848;2023-03-15T14:09:10;96972.84;;;7.51;66.05
40992;BME280;29633;49.168;9.848;2023-03-15T14:11:41;96973.56;;;7.53;66.06
40992;BME280;29633;49.168;9.848;2023-03-15T14:14:21;96973.81;;;7.63;65.95